Time,TemperatureF,DewpointF,PressureIn,WindDirection,WindDirectionDegrees,WindSpeedMPH,WindSpeedGustMPH,Humidity,HourlyPrecipIn,Conditions,Clouds,dailyrainin,SolarRadiationWatts/m^2,SoftwareType,DateUTC
2013-02-22 00:01:00,57.0,-99.9,-100.00,North,355,5.0,27.0,-999,0.00,,,0.26,0.000000,,2013-02-22 10:01:00,
2013-02-22 00:11:00,57.0,-99.9,-100.00,North,355,5.0,27.0,-999,0.00,,,0.26,0.000000,,2013-02-22 10:11:00,
2013-02-22 00:22:00,57.0,-99.9,-100.00,North,355,5.0,27.0,-999,0.00,,,0.26,0.000000,,2013-02-22 10:22:00,
2013-02-22 00:42:00,57.0,-99.9,-100.00,North,358,4.0,15.0,-999,0.00,,,0.26,0.000000,,2013-02-22 10:42:00,
2013-02-22 00:52:00,57.0,-99.9,-100.00,North,358,4.0,15.0,-999,0.00,,,0.26,0.000000,,2013-02-22 10:52:00,
2013-02-22 01:01:00,57.0,-99.9,-100.00,North,358,4.0,15.0,-999,0.00,,,0.26,0.000000,,2013-02-22 11:01:00,
2013-02-22 01:11:00,57.0,-99.9,-100.00,North,358,4.0,15.0,-999,0.00,,,0.26,0.000000,,2013-02-22 11:11:00,
2013-02-22 01:22:00,57.0,-99.9,-100.00,North,358,4.0,15.0,-999,0.00,,,0.26,0.000000,,2013-02-22 11:22:00,
2013-02-22 01:42:00,56.0,-99.9,-100.00,North,5,4.0,15.0,-999,0.00,,,0.26,0.000000,,2013-02-22 11:42:00,
2013-02-22 01:52:00,56.0,-99.9,-100.00,North,5,4.0,15.0,-999,0.00,,,0.26,0.000000,,2013-02-22 11:52:00,
2013-02-22 02:02:00,56.0,-99.9,-100.00,North,5,4.0,15.0,-999,0.00,,,0.26,0.000000,,2013-02-22 12:02:00,
2013-02-22 02:11:00,56.0,-99.9,-100.00,North,5,4.0,15.0,-999,0.00,,,0.26,0.000000,,2013-02-22 12:11:00,
2013-02-22 02:22:00,56.0,-99.9,-100.00,North,5,4.0,15.0,-999,0.00,,,0.26,0.000000,,2013-02-22 12:22:00,
2013-02-22 02:42:00,56.0,-99.9,-100.00,North,355,4.0,17.0,-999,0.02,,,0.28,0.000000,,2013-02-22 12:42:00,
2013-02-22 02:52:00,56.0,-99.9,-100.00,North,355,4.0,17.0,-999,0.02,,,0.28,0.000000,,2013-02-22 12:52:00,
2013-02-22 03:02:00,56.0,-99.9,-100.00,North,355,4.0,17.0,-999,0.02,,,0.28,0.000000,,2013-02-22 13:02:00,
2013-02-22 03:11:00,56.0,-99.9,-100.00,North,355,4.0,17.0,-999,0.02,,,0.28,0.000000,,2013-02-22 13:11:00,
2013-02-22 03:22:00,56.0,-99.9,-100.00,North,355,4.0,17.0,-999,0.02,,,0.28,0.000000,,2013-02-22 13:22:00,
2013-02-22 03:42:00,56.0,-99.9,-100.00,North,356,5.0,17.0,-999,0.00,,,0.28,0.000000,,2013-02-22 13:42:00,
2013-02-22 03:52:00,56.0,-99.9,-100.00,North,356,5.0,17.0,-999,0.00,,,0.28,0.000000,,2013-02-22 13:52:00,
2013-02-22 04:01:00,56.0,-99.9,-100.00,North,356,5.0,17.0,-999,0.00,,,0.28,0.000000,,2013-02-22 14:01:00,
2013-02-22 04:12:00,56.0,-99.9,-100.00,North,356,5.0,17.0,-999,0.00,,,0.28,0.000000,,2013-02-22 14:12:00,
2013-02-22 04:22:00,56.0,-99.9,-100.00,North,356,5.0,17.0,-999,0.00,,,0.28,0.000000,,2013-02-22 14:22:00,
2013-02-22 04:42:00,56.0,-99.9,-100.00,North,356,4.0,13.0,-999,0.00,,,0.28,0.000000,,2013-02-22 14:42:00,
2013-02-22 04:53:00,56.0,-99.9,-100.00,North,356,4.0,13.0,-999,0.00,,,0.28,0.000000,,2013-02-22 14:53:00,
2013-02-22 05:02:00,56.0,-99.9,-100.00,North,356,4.0,13.0,-999,0.00,,,0.28,0.000000,,2013-02-22 15:02:00,
2013-02-22 05:12:00,56.0,-99.9,-100.00,North,356,4.0,13.0,-999,0.00,,,0.28,0.000000,,2013-02-22 15:12:00,
2013-02-22 05:22:00,56.0,-99.9,-100.00,North,356,4.0,13.0,-999,0.00,,,0.28,0.000000,,2013-02-22 15:22:00,
2013-02-22 05:42:00,56.0,-99.9,-100.00,North,358,4.0,21.0,-999,0.00,,,0.28,0.000000,,2013-02-22 15:42:00,
2013-02-22 05:52:00,56.0,-99.9,-100.00,North,358,4.0,21.0,-999,0.00,,,0.28,0.000000,,2013-02-22 15:52:00,
2013-02-22 06:02:00,56.0,-99.9,-100.00,North,358,4.0,21.0,-999,0.00,,,0.28,0.000000,,2013-02-22 16:02:00,
2013-02-22 06:12:00,56.0,-99.9,-100.00,North,358,4.0,21.0,-999,0.00,,,0.28,0.000000,,2013-02-22 16:12:00,
2013-02-22 06:22:00,56.0,-99.9,-100.00,North,358,4.0,21.0,-999,0.00,,,0.28,0.000000,,2013-02-22 16:22:00,
2013-02-22 06:42:00,56.0,51.0,-100.00,North,354,4.0,14.0,82,0.00,,,0.28,0.000000,,2013-02-22 16:42:00,
2013-02-22 06:52:00,56.0,51.0,-100.00,North,354,4.0,14.0,82,0.00,,,0.28,0.000000,,2013-02-22 16:52:00,
2013-02-22 07:01:00,56.0,51.0,-100.00,North,354,4.0,14.0,82,0.00,,,0.28,0.000000,,2013-02-22 17:01:00,
2013-02-22 07:11:00,56.0,51.0,-100.00,North,354,4.0,14.0,82,0.00,,,0.28,0.000000,,2013-02-22 17:11:00,
2013-02-22 07:21:00,56.0,51.0,-100.00,North,354,4.0,14.0,82,0.00,,,0.28,0.000000,,2013-02-22 17:21:00,
2013-02-22 07:42:00,57.0,50.0,-100.00,North,353,5.0,16.0,78,0.00,,,0.28,0.000000,,2013-02-22 17:42:00,
2013-02-22 07:52:00,57.0,50.0,-100.00,North,353,5.0,16.0,78,0.00,,,0.28,0.000000,,2013-02-22 17:52:00,
2013-02-22 08:01:00,57.0,50.0,-100.00,North,353,5.0,16.0,78,0.00,,,0.28,0.000000,,2013-02-22 18:01:00,
2013-02-22 08:11:00,57.0,50.0,-100.00,North,353,5.0,16.0,78,0.00,,,0.28,0.000000,,2013-02-22 18:11:00,
2013-02-22 08:22:00,57.0,50.0,-100.00,North,353,5.0,16.0,78,0.00,,,0.28,0.000000,,2013-02-22 18:22:00,
2013-02-22 08:42:00,57.0,52.0,-100.00,North,354,4.0,12.0,83,0.00,,,0.28,38.000000,,2013-02-22 18:42:00,
2013-02-22 08:52:00,57.0,52.0,-100.00,North,354,4.0,12.0,83,0.00,,,0.28,38.000000,,2013-02-22 18:52:00,
2013-02-22 09:01:00,57.0,52.0,-100.00,North,354,4.0,12.0,83,0.00,,,0.28,38.000000,,2013-02-22 19:01:00,
2013-02-22 09:11:00,57.0,52.0,-100.00,North,354,4.0,12.0,83,0.00,,,0.28,38.000000,,2013-02-22 19:11:00,
2013-02-22 09:21:00,57.0,52.0,-100.00,North,354,4.0,12.0,83,0.00,,,0.28,38.000000,,2013-02-22 19:21:00,
2013-02-22 09:42:00,58.0,54.0,-100.00,North,10,4.0,15.0,86,0.00,,,0.28,119.000000,,2013-02-22 19:42:00,
2013-02-22 09:52:00,58.0,54.0,-100.00,North,10,4.0,15.0,86,0.00,,,0.28,119.000000,,2013-02-22 19:52:00,
2013-02-22 10:01:00,58.0,54.0,-100.00,North,10,4.0,15.0,86,0.00,,,0.28,119.000000,,2013-02-22 20:01:00,
2013-02-22 10:11:00,58.0,54.0,-100.00,North,10,4.0,15.0,86,0.00,,,0.28,119.000000,,2013-02-22 20:11:00,
2013-02-22 10:21:00,58.0,54.0,-100.00,North,10,4.0,15.0,86,0.00,,,0.28,119.000000,,2013-02-22 20:21:00,
2013-02-22 10:42:00,59.0,54.0,-100.00,North,9,4.0,16.0,83,0.00,,,0.28,179.000000,,2013-02-22 20:42:00,
2013-02-22 10:52:00,59.0,54.0,-100.00,North,9,4.0,16.0,83,0.00,,,0.28,179.000000,,2013-02-22 20:52:00,
2013-02-22 11:01:00,59.0,54.0,-100.00,North,9,4.0,16.0,83,0.00,,,0.28,179.000000,,2013-02-22 21:01:00,
2013-02-22 11:11:00,59.0,54.0,-100.00,North,9,4.0,16.0,83,0.00,,,0.28,179.000000,,2013-02-22 21:11:00,
2013-02-22 11:21:00,59.0,54.0,-100.00,North,9,4.0,16.0,83,0.00,,,0.28,179.000000,,2013-02-22 21:21:00,
2013-02-22 11:42:00,62.0,56.0,-100.00,NNE,14,4.0,16.0,82,0.00,,,0.28,310.000000,,2013-02-22 21:42:00,
2013-02-22 11:52:00,62.0,56.0,-100.00,NNE,14,4.0,16.0,82,0.00,,,0.28,310.000000,,2013-02-22 21:52:00,
2013-02-22 12:01:00,62.0,56.0,-100.00,NNE,14,4.0,16.0,82,0.00,,,0.28,310.000000,,2013-02-22 22:01:00,
2013-02-22 12:11:00,62.0,56.0,-100.00,NNE,14,4.0,16.0,82,0.00,,,0.28,310.000000,,2013-02-22 22:11:00,
2013-02-22 12:21:00,62.0,56.0,-100.00,NNE,14,4.0,16.0,82,0.00,,,0.28,310.000000,,2013-02-22 22:21:00,
2013-02-22 12:42:00,60.0,54.0,-100.00,NNE,21,5.0,16.0,82,0.00,,,0.28,263.000000,,2013-02-22 22:42:00,
2013-02-22 12:52:00,60.0,54.0,-100.00,NNE,21,5.0,16.0,82,0.00,,,0.28,263.000000,,2013-02-22 22:52:00,
2013-02-22 13:01:00,60.0,54.0,-100.00,NNE,21,5.0,16.0,82,0.00,,,0.28,263.000000,,2013-02-22 23:01:00,
2013-02-22 13:11:00,60.0,54.0,-100.00,NNE,21,5.0,16.0,82,0.00,,,0.28,263.000000,,2013-02-22 23:11:00,
2013-02-22 13:21:00,60.0,54.0,-100.00,NNE,21,5.0,16.0,82,0.00,,,0.28,263.000000,,2013-02-22 23:21:00,
2013-02-22 13:42:00,62.0,54.0,-100.00,North,11,5.0,18.0,76,0.00,,,0.28,395.000000,,2013-02-22 23:42:00,
2013-02-22 13:52:00,62.0,54.0,-100.00,North,11,5.0,18.0,76,0.00,,,0.28,395.000000,,2013-02-22 23:52:00,
2013-02-22 14:01:00,62.0,54.0,-100.00,North,11,5.0,18.0,76,0.00,,,0.28,395.000000,,2013-02-23 00:01:00,
2013-02-22 14:11:00,62.0,54.0,-100.00,North,11,5.0,18.0,76,0.00,,,0.28,395.000000,,2013-02-23 00:11:00,
2013-02-22 14:21:00,62.0,54.0,-100.00,North,11,5.0,18.0,76,0.00,,,0.28,395.000000,,2013-02-23 00:21:00,
2013-02-22 14:42:00,62.0,56.0,-100.00,NNE,24,4.0,16.0,82,0.00,,,0.28,283.000000,,2013-02-23 00:42:00,
2013-02-22 14:52:00,62.0,56.0,-100.00,NNE,24,4.0,16.0,82,0.00,,,0.28,283.000000,,2013-02-23 00:52:00,
2013-02-22 15:01:00,62.0,56.0,-100.00,NNE,24,4.0,16.0,82,0.00,,,0.28,283.000000,,2013-02-23 01:01:00,
2013-02-22 15:11:00,62.0,56.0,-100.00,NNE,24,4.0,16.0,82,0.00,,,0.28,283.000000,,2013-02-23 01:11:00,
2013-02-22 15:21:00,62.0,56.0,-100.00,NNE,24,4.0,16.0,82,0.00,,,0.28,283.000000,,2013-02-23 01:21:00,
2013-02-22 15:42:00,63.0,54.0,-100.00,NNE,18,5.0,17.0,73,0.00,,,0.28,374.000000,,2013-02-23 01:42:00,
2013-02-22 15:52:00,63.0,54.0,-100.00,NNE,18,5.0,17.0,73,0.00,,,0.28,374.000000,,2013-02-23 01:52:00,
2013-02-22 16:01:00,63.0,54.0,-100.00,NNE,18,5.0,17.0,73,0.00,,,0.28,374.000000,,2013-02-23 02:01:00,
2013-02-22 16:11:00,63.0,54.0,-100.00,NNE,18,5.0,17.0,73,0.00,,,0.28,374.000000,,2013-02-23 02:11:00,
2013-02-22 16:21:00,63.0,54.0,-100.00,NNE,18,5.0,17.0,73,0.00,,,0.28,374.000000,,2013-02-23 02:21:00,
2013-02-22 16:42:00,64.0,60.0,-100.00,NE,55,4.0,14.0,87,0.00,,,0.13,273.000000,,2013-02-23 02:42:00,
2013-02-22 16:52:00,64.0,60.0,-100.00,NE,55,4.0,14.0,87,0.00,,,0.13,273.000000,,2013-02-23 02:52:00,
2013-02-22 17:01:00,64.0,60.0,-100.00,NE,55,4.0,14.0,87,0.00,,,0.13,273.000000,,2013-02-23 03:01:00,
2013-02-22 17:11:00,64.0,60.0,-100.00,NE,55,4.0,14.0,87,0.00,,,0.13,273.000000,,2013-02-23 03:11:00,
2013-02-22 17:21:00,64.0,60.0,-100.00,NE,55,4.0,14.0,87,0.00,,,0.13,273.000000,,2013-02-23 03:21:00,
2013-02-22 17:42:00,60.0,56.0,-100.00,NNE,33,3.0,11.0,88,0.00,,,0.05,93.000000,,2013-02-23 03:42:00,
2013-02-22 17:52:00,60.0,56.0,-100.00,NNE,33,3.0,11.0,88,0.00,,,0.05,93.000000,,2013-02-23 03:52:00,
2013-02-22 18:01:00,60.0,56.0,-100.00,NNE,33,3.0,11.0,88,0.00,,,0.05,93.000000,,2013-02-23 04:01:00,
2013-02-22 18:11:00,60.0,56.0,-100.00,NNE,33,3.0,11.0,88,0.00,,,0.05,93.000000,,2013-02-23 04:11:00,
2013-02-22 18:21:00,60.0,56.0,-100.00,NNE,33,3.0,11.0,88,0.00,,,0.05,93.000000,,2013-02-23 04:21:00,
2013-02-22 18:42:00,58.0,51.0,-100.00,North,1,3.0,14.0,78,0.00,,,0.05,64.000000,,2013-02-23 04:42:00,
2013-02-22 18:52:00,58.0,51.0,-100.00,North,1,3.0,14.0,78,0.00,,,0.05,64.000000,,2013-02-23 04:52:00,
2013-02-22 19:02:00,58.0,51.0,-100.00,North,1,3.0,14.0,78,0.00,,,0.05,64.000000,,2013-02-23 05:02:00,
2013-02-22 19:11:00,58.0,51.0,-100.00,North,1,3.0,14.0,78,0.00,,,0.05,64.000000,,2013-02-23 05:11:00,
2013-02-22 19:22:00,58.0,51.0,-100.00,North,1,3.0,14.0,78,0.00,,,0.05,64.000000,,2013-02-23 05:22:00,
2013-02-22 19:42:00,57.0,50.0,-100.00,North,356,5.0,15.0,76,0.00,,,0.04,5.000000,,2013-02-23 05:42:00,
2013-02-22 19:52:00,57.0,50.0,-100.00,North,356,5.0,15.0,76,0.00,,,0.04,5.000000,,2013-02-23 05:52:00,
2013-02-22 20:01:00,57.0,50.0,-100.00,North,356,5.0,15.0,76,0.00,,,0.04,5.000000,,2013-02-23 06:01:00,
2013-02-22 20:11:00,57.0,50.0,-100.00,North,356,5.0,15.0,76,0.00,,,0.04,5.000000,,2013-02-23 06:11:00,
2013-02-22 20:21:00,57.0,50.0,-100.00,North,356,5.0,15.0,76,0.00,,,0.04,5.000000,,2013-02-23 06:21:00,
2013-02-22 20:42:00,57.0,50.0,-100.00,North,357,4.0,17.0,78,0.00,,,0.04,0.000000,,2013-02-23 06:42:00,
2013-02-22 20:52:00,57.0,50.0,-100.00,North,357,4.0,17.0,78,0.00,,,0.04,0.000000,,2013-02-23 06:52:00,
2013-02-22 21:01:00,57.0,50.0,-100.00,North,357,4.0,17.0,78,0.00,,,0.04,0.000000,,2013-02-23 07:01:00,
2013-02-22 21:11:00,57.0,50.0,-100.00,North,357,4.0,17.0,78,0.00,,,0.04,0.000000,,2013-02-23 07:11:00,
2013-02-22 21:21:00,57.0,50.0,-100.00,North,357,4.0,17.0,78,0.00,,,0.04,0.000000,,2013-02-23 07:21:00,
2013-02-22 21:42:00,58.0,51.0,-100.00,North,0,5.0,16.0,78,0.00,,,0.03,0.000000,,2013-02-23 07:42:00,
2013-02-22 21:52:00,58.0,51.0,-100.00,North,0,5.0,16.0,78,0.00,,,0.03,0.000000,,2013-02-23 07:52:00,
2013-02-22 22:01:00,58.0,51.0,-100.00,North,0,5.0,16.0,78,0.00,,,0.03,0.000000,,2013-02-23 08:01:00,
2013-02-22 22:11:00,58.0,51.0,-100.00,North,0,5.0,16.0,78,0.00,,,0.03,0.000000,,2013-02-23 08:11:00,
2013-02-22 22:21:00,58.0,51.0,-100.00,North,0,5.0,16.0,78,0.00,,,0.03,0.000000,,2013-02-23 08:21:00,
2013-02-22 22:42:00,58.0,50.0,-100.00,North,357,4.0,13.0,76,0.00,,,0.02,0.000000,,2013-02-23 08:42:00,
2013-02-22 22:52:00,58.0,50.0,-100.00,North,357,4.0,13.0,76,0.00,,,0.02,0.000000,,2013-02-23 08:52:00,
2013-02-22 23:01:00,58.0,50.0,-100.00,North,357,4.0,13.0,76,0.00,,,0.02,0.000000,,2013-02-23 09:01:00,
2013-02-22 23:11:00,58.0,50.0,-100.00,North,357,4.0,13.0,76,0.00,,,0.02,0.000000,,2013-02-23 09:11:00,
2013-02-22 23:21:00,58.0,50.0,-100.00,North,357,4.0,13.0,76,0.00,,,0.02,0.000000,,2013-02-23 09:21:00,
2013-02-22 23:42:00,58.0,49.0,-100.00,North,356,4.0,13.0,73,0.00,,,0.02,0.000000,,2013-02-23 09:42:00,
2013-02-22 23:52:00,58.0,49.0,-100.00,North,356,4.0,13.0,73,0.00,,,0.02,0.000000,,2013-02-23 09:52:00,